Time;durP1;ratioP1;P1;durP2;ratioP2;P2;SDS_P1;SDS_P2;PMS_P1;PMS_P2;Temp;Humidity;BMP_temperature;BMP_pressure;BME280_temperature;BME280_humidity;BME280_pressure;Samples;Min_cycle;Max_cycle;Signal;HPM_P1;HPM_P2
2023/04/05 00:00:32;;;;;;;;;;;;;;;;;;5113653;28;2175;-40
2023/04/05 00:03:00;;;;;;;;;;;;;;;;;;5131893;28;1929;-44
2023/04/05 00:05:33;;;;;;;;;;;;;;;;;;5131801;28;2091;-40
2023/04/05 00:08:00;;;;;;;;;;;;;;;;;;5131778;28;1473;-40
2023/04/05 00:10:28;;;;;;;;;;;;;;;;;;5131412;28;1696;-40
2023/04/05 00:12:56;;;;;;;;;;;;;;;;;;5131565;28;1662;-39
2023/04/05 00:15:23;;;;;;;;;;;;;;;;;;5131581;28;1440;-40
2023/04/05 00:17:52;;;;;;;;;;;;;;;;;;5131417;28;2123;-39
2023/04/05 00:20:20;;;;;;;;;;;;;;;;;;5131491;28;2099;-38
2023/04/05 00:22:49;;;;;;;;;;;;;;;;;;5131186;28;1992;-40
2023/04/05 00:25:17;;;;;;;;;;;;;;;;;;5131333;27;1907;-38
2023/04/05 00:27:44;;;;;;;;;;;;;;;;;;5134194;27;1933;-40
2023/04/05 00:30:13;;;;;;;;;;;;;;;;;;5135055;27;2036;-40
2023/04/05 00:32:40;;;;;;;;;;;;;;;;;;5134985;27;1808;-39
2023/04/05 00:35:08;;;;;;;;;;;;;;;;;;5134899;27;2422;-41
2023/04/05 00:37:35;;;;;;;;;;;;;;;;;;5134711;27;2206;-39
2023/04/05 00:40:03;;;;;;;;;;;;;;;;;;5116609;27;2261;-40
2023/04/05 00:42:30;;;;;;;;;;;;;;;;;;5134986;27;1411;-40
2023/04/05 00:44:57;;;;;;;;;;;;;;;;;;5130307;27;2212;-39
2023/04/05 00:47:24;;;;;;;;;;;;;;;;;;5095601;28;1909;-40
2023/04/05 00:49:51;;;;;;;;;;;;;;;;;;5114003;28;1961;-41
2023/04/05 00:52:22;;;;;;;;;;;;;;;;;;5114141;28;1460;-43
2023/04/05 00:54:50;;;;;;;;;;;;;;;;;;5113697;28;1528;-40
2023/04/05 00:57:17;;;;;;;;;;;;;;;;;;5109774;28;1802;-41
2023/04/05 00:59:45;;;;;;;;;;;;;;;;;;5113737;28;1807;-40
2023/04/05 01:02:16;;;;;;;;;;;;;;;;;;5113900;28;1884;-40
2023/04/05 01:04:48;;;;;;;;;;;;;;;;;;5113696;28;1802;-40
2023/04/05 01:07:20;;;;;;;;;;;;;;;;;;5113682;28;1907;-40
2023/04/05 01:09:57;;;;;;;;;;;;;;;;;;5113645;28;1463;-40
2023/04/05 01:12:31;;;;;;;;;;;;;;;;;;5113784;28;1725;-39
2023/04/05 01:14:59;;;;;;;;;;;;;;;;;;5113263;28;2046;-40
2023/04/05 01:17:28;;;;;;;;;;;;;;;;;;5113665;28;1740;-40
2023/04/05 01:20:02;;;;;;;;;;;;;;;;;;5113431;28;1379;-43
2023/04/05 01:22:49;;;;;;;;;;;;;;;;;;5113563;28;2374;-40
2023/04/05 01:25:19;;;;;;;;;;;;;;;;;;5113543;28;1558;-40
2023/04/05 01:27:58;;;;;;;;;;;;;;;;;;5094845;28;1973;-42
2023/04/05 01:30:31;;;;;;;;;;;;;;;;;;5113515;28;2348;-40
2023/04/05 01:33:11;;;;;;;;;;;;;;;;;;5113140;28;1389;-38
2023/04/05 01:35:43;;;;;;;;;;;;;;;;;;5113022;28;1817;-40
2023/04/05 01:38:14;;;;;;;;;;;;;;;;;;5112670;28;1838;-39
2023/04/05 01:40:41;;;;;;;;;;;;;;;;;;5113079;28;1892;-51
2023/04/05 01:43:13;;;;;;;;;;;;;;;;;;5094471;28;1915;-40
2023/04/05 01:45:41;;;;;;;;;;;;;;;;;;5119908;27;1909;-37
2023/04/05 01:48:12;;;;;;;;;;;;;;;;;;5150541;27;1360;-37
2023/04/05 01:50:40;;;;;;;;;;;;;;;;;;5115781;27;1469;-38
2023/04/05 01:53:08;;;;;;;;;;;;;;;;;;5129502;27;1338;-42
2023/04/05 01:55:35;;;;;;;;;;;;;;;;;;5127073;27;1271;-37
2023/04/05 01:58:08;;;;;;;;;;;;;;;;;;5112807;28;1684;-37
2023/04/05 02:00:36;;;;;;;;;;;;;;;;;;5116217;27;2012;-40
2023/04/05 02:03:03;;;;;;;;;;;;;;;;;;5130676;27;2094;-39
2023/04/05 02:05:31;;;;;;;;;;;;;;;;;;5114248;27;1725;-41
2023/04/05 02:07:58;;;;;;;;;;;;;;;;;;5132919;27;1997;-41
2023/04/05 02:10:25;;;;;;;;;;;;;;;;;;5132992;27;1454;-41
2023/04/05 02:12:53;;;;;;;;;;;;;;;;;;5114536;27;1667;-40
2023/04/05 02:15:20;;;;;;;;;;;;;;;;;;5132425;27;1863;-37
2023/04/05 02:17:52;;;;;;;;;;;;;;;;;;5132860;27;1383;-41
2023/04/05 02:20:20;;;;;;;;;;;;;;;;;;5132741;27;1719;-41
2023/04/05 02:22:47;;;;;;;;;;;;;;;;;;5110762;28;2027;-40
2023/04/05 02:25:15;;;;;;;;;;;;;;;;;;5093786;28;2023;-53
2023/04/05 02:27:42;;;;;;;;;;;;;;;;;;5093670;28;1955;-50
2023/04/05 02:30:12;;;;;;;;;;;;;;;;;;5093885;28;1297;-39
2023/04/05 02:32:46;;;;;;;;;;;;;;;;;;5112053;28;2143;-40
2023/04/05 02:35:16;;;;;;;;;;;;;;;;;;5111956;28;1676;-43
2023/04/05 02:37:45;;;;;;;;;;;;;;;;;;5111932;28;1881;-41
2023/04/05 02:40:14;;;;;;;;;;;;;;;;;;5111845;28;1869;-40
2023/04/05 02:42:41;;;;;;;;;;;;;;;;;;5111693;28;1725;-40
2023/04/05 02:45:09;;;;;;;;;;;;;;;;;;5093661;28;1881;-39
2023/04/05 02:47:36;;;;;;;;;;;;;;;;;;5112167;28;2238;-40
2023/04/05 02:50:04;;;;;;;;;;;;;;;;;;5092777;28;1941;-40
2023/04/05 02:52:36;;;;;;;;;;;;;;;;;;5113349;27;2015;-40
2023/04/05 02:55:05;;;;;;;;;;;;;;;;;;5101257;27;1865;-41
2023/04/05 02:57:33;;;;;;;;;;;;;;;;;;5109720;28;2128;-42
2023/04/05 03:00:10;;;;;;;;;;;;;;;;;;5110420;28;1872;-45
2023/04/05 03:02:38;;;;;;;;;;;;;;;;;;5093520;28;1821;-44
2023/04/05 03:05:06;;;;;;;;;;;;;;;;;;5093240;28;2075;-41
2023/04/05 03:07:35;;;;;;;;;;;;;;;;;;5093020;28;2079;-40
2023/04/05 03:10:07;;;;;;;;;;;;;;;;;;5093261;28;1784;-49
2023/04/05 03:12:37;;;;;;;;;;;;;;;;;;5093241;28;1891;-39
2023/04/05 03:15:06;;;;;;;;;;;;;;;;;;5093262;28;2078;-41
2023/04/05 03:17:38;;;;;;;;;;;;;;;;;;5111496;28;1884;-41
2023/04/05 03:20:07;;;;;;;;;;;;;;;;;;5093187;28;1780;-45
2023/04/05 03:22:35;;;;;;;;;;;;;;;;;;5093118;28;1658;-40
2023/04/05 03:25:04;;;;;;;;;;;;;;;;;;5111433;28;1961;-44
2023/04/05 03:27:38;;;;;;;;;;;;;;;;;;5093182;28;1912;-40
2023/04/05 03:30:13;;;;;;;;;;;;;;;;;;5111421;28;1751;-40
2023/04/05 03:32:47;;;;;;;;;;;;;;;;;;5092968;28;1846;-41
2023/04/05 03:35:29;;;;;;;;;;;;;;;;;;5093029;28;1921;-41
2023/04/05 03:37:57;;;;;;;;;;;;;;;;;;5093227;28;2288;-40
2023/04/05 03:40:24;;;;;;;;;;;;;;;;;;5111316;28;1933;-41
2023/04/05 03:42:52;;;;;;;;;;;;;;;;;;5092754;28;1694;-40
2023/04/05 03:45:19;;;;;;;;;;;;;;;;;;5093215;28;1888;-40
2023/04/05 03:47:50;;;;;;;;;;;;;;;;;;5089300;28;1968;-40
2023/04/05 03:50:17;;;;;;;;;;;;;;;;;;5090786;28;2388;-40
2023/04/05 03:52:45;;;;;;;;;;;;;;;;;;5089685;28;2472;-41
2023/04/05 03:55:12;;;;;;;;;;;;;;;;;;5089637;28;1644;-41
2023/04/05 03:57:40;;;;;;;;;;;;;;;;;;5090798;28;1803;-41
2023/04/05 04:00:22;;;;;;;;;;;;;;;;;;5090208;28;2051;-40
2023/04/05 04:03:19;;;;;;;;;;;;;;;;;;5090980;28;1497;-41
2023/04/05 04:05:50;;;;;;;;;;;;;;;;;;5093014;28;1399;-40
2023/04/05 04:08:19;;;;;;;;;;;;;;;;;;5103952;28;2321;-40
2023/04/05 04:10:47;;;;;;;;;;;;;;;;;;5113610;28;2219;-40
2023/04/05 04:13:26;;;;;;;;;;;;;;;;;;5113554;28;1980;-41
2023/04/05 04:16:02;;;;;;;;;;;;;;;;;;5113318;28;2182;-40
2023/04/05 04:18:43;;;;;;;;;;;;;;;;;;5113531;28;1816;-41
2023/04/05 04:21:23;;;;;;;;;;;;;;;;;;5113204;28;1854;-40
2023/04/05 04:23:59;;;;;;;;;;;;;;;;;;5114546;28;1854;-41
2023/04/05 04:26:46;;;;;;;;;;;;;;;;;;5114259;28;1975;-41
2023/04/05 04:29:45;;;;;;;;;;;;;;;;;;5113173;28;1562;-40
2023/04/05 04:32:50;;;;;;;;;;;;;;;;;;5114411;28;1551;-41
2023/04/05 04:35:39;;;;;;;;;;;;;;;;;;5114476;28;1681;-41
2023/04/05 04:38:20;;;;;;;;;;;;;;;;;;5114608;28;1842;-44
2023/04/05 04:41:18;;;;;;;;;;;;;;;;;;5109184;28;1816;-41
2023/04/05 04:44:01;;;;;;;;;;;;;;;;;;5085825;27;10198;-41
2023/04/05 04:46:42;;;;;;;;;;;;;;;;;;5092059;28;1917;-41
2023/04/05 04:49:16;;;;;;;;;;;;;;;;;;5096236;28;2020;-42
2023/04/05 04:51:47;;;;;;;;;;;;;;;;;;5114054;28;1696;-40
2023/04/05 04:54:19;;;;;;;;;;;;;;;;;;5095979;28;1577;-42
2023/04/05 04:56:47;;;;;;;;;;;;;;;;;;5127436;27;1595;-37
2023/04/05 04:59:14;;;;;;;;;;;;;;;;;;5133562;27;2056;-43
2023/04/05 05:01:44;;;;;;;;;;;;;;;;;;5133420;27;2041;-39
2023/04/05 05:04:11;;;;;;;;;;;;;;;;;;5132964;27;1362;-38
2023/04/05 05:06:41;;;;;;;;;;;;;;;;;;5115621;27;2009;-38
2023/04/05 05:09:08;;;;;;;;;;;;;;;;;;5134374;27;1416;-38
2023/04/05 05:11:44;;;;;;;;;;;;;;;;;;5133408;27;1699;-38
2023/04/05 05:14:12;;;;;;;;;;;;;;;;;;5133233;27;1554;-38
2023/04/05 05:16:39;;;;;;;;;;;;;;;;;;5134064;27;1951;-41
2023/04/05 05:19:07;;;;;;;;;;;;;;;;;;5133912;27;1981;-40
2023/04/05 05:21:42;;;;;;;;;;;;;;;;;;5115557;27;2123;-41
2023/04/05 05:24:10;;;;;;;;;;;;;;;;;;5115917;27;1628;-40
2023/04/05 05:26:38;;;;;;;;;;;;;;;;;;5133865;27;2032;-41
2023/04/05 05:29:05;;;;;;;;;;;;;;;;;;5133685;27;2370;-41
2023/04/05 05:31:38;;;;;;;;;;;;;;;;;;5115448;27;1489;-39
2023/04/05 05:34:07;;;;;;;;;;;;;;;;;;5133722;27;1670;-41
2023/04/05 05:36:37;;;;;;;;;;;;;;;;;;5114504;27;2167;-41
2023/04/05 05:39:05;;;;;;;;;;;;;;;;;;5132930;27;1651;-40
2023/04/05 05:41:32;;;;;;;;;;;;;;;;;;5132376;27;1644;-41
2023/04/05 05:44:00;;;;;;;;;;;;;;;;;;5133454;27;1952;-41
2023/04/05 05:46:27;;;;;;;;;;;;;;;;;;5133122;27;1782;-40
2023/04/05 05:48:55;;;;;;;;;;;;;;;;;;5133449;27;2150;-41
2023/04/05 05:51:23;;;;;;;;;;;;;;;;;;5132345;27;2087;-41
2023/04/05 05:53:50;;;;;;;;;;;;;;;;;;5132566;27;2340;-41
2023/04/05 05:56:17;;;;;;;;;;;;;;;;;;5133511;27;1922;-40
2023/04/05 05:58:45;;;;;;;;;;;;;;;;;;5132769;27;2301;-40
2023/04/05 06:01:13;;;;;;;;;;;;;;;;;;5133155;27;2013;-40
2023/04/05 06:03:40;;;;;;;;;;;;;;;;;;5133193;27;1953;-40
2023/04/05 06:06:09;;;;;;;;;;;;;;;;;;5133135;27;1753;-41
2023/04/05 06:08:37;;;;;;;;;;;;;;;;;;5132889;27;2016;-44
2023/04/05 06:11:04;;;;;;;;;;;;;;;;;;5133118;27;1495;-41
2023/04/05 06:13:31;;;;;;;;;;;;;;;;;;5132930;27;2022;-45
2023/04/05 06:16:00;;;;;;;;;;;;;;;;;;5132235;27;1806;-42
2023/04/05 06:18:27;;;;;;;;;;;;;;;;;;5132879;27;1867;-40
2023/04/05 06:20:55;;;;;;;;;;;;;;;;;;5132859;27;2158;-41
2023/04/05 06:23:22;;;;;;;;;;;;;;;;;;5133298;27;2393;-40
2023/04/05 06:25:50;;;;;;;;;;;;;;;;;;5132934;27;1512;-38
2023/04/05 06:28:17;;;;;;;;;;;;;;;;;;5132585;27;1980;-40
2023/04/05 06:30:44;;;;;;;;;;;;;;;;;;5132625;27;2132;-41
2023/04/05 06:33:11;;;;;;;;;;;;;;;;;;5132546;27;1936;-39
2023/04/05 06:35:39;;;;;;;;;;;;;;;;;;5114447;27;1969;-42
2023/04/05 06:38:06;;;;;;;;;;;;;;;;;;5132567;27;1654;-39
2023/04/05 06:40:33;;;;;;;;;;;;;;;;;;5132420;27;1946;-37
2023/04/05 06:43:01;;;;;;;;;;;;;;;;;;5132597;27;2258;-37
2023/04/05 06:45:30;;;;;;;;;;;;;;;;;;5132471;27;1910;-40
2023/04/05 06:47:57;;;;;;;;;;;;;;;;;;5111910;27;1918;-39
2023/04/05 06:50:25;;;;;;;;;;;;;;;;;;5112007;28;1929;-41
2023/04/05 06:52:52;;;;;;;;;;;;;;;;;;5112019;28;1568;-48
2023/04/05 06:55:19;;;;;;;;;;;;;;;;;;5111676;28;1985;-40
2023/04/05 06:57:46;;;;;;;;;;;;;;;;;;5111612;28;2106;-39
2023/04/05 07:00:16;;;;;;;;;;;;;;;;;;5111741;28;1987;-40
2023/04/05 07:02:43;;;;;;;;;;;;;;;;;;5111665;28;1898;-42
2023/04/05 07:05:10;;;;;;;;;;;;;;;;;;5111416;28;1784;-41
2023/04/05 07:07:38;;;;;;;;;;;;;;;;;;5111688;28;1902;-40
2023/04/05 07:10:05;;;;;;;;;;;;;;;;;;5111671;28;1989;-40
2023/04/05 07:12:32;;;;;;;;;;;;;;;;;;5111543;28;2190;-40
2023/04/05 07:14:59;;;;;;;;;;;;;;;;;;5111556;28;2073;-42
2023/04/05 07:17:26;;;;;;;;;;;;;;;;;;5111463;28;1936;-48
2023/04/05 07:19:54;;;;;;;;;;;;;;;;;;5111622;28;1852;-41
2023/04/05 07:22:21;;;;;;;;;;;;;;;;;;5111500;28;1643;-48
2023/04/05 07:24:48;;;;;;;;;;;;;;;;;;5111432;28;1873;-41
2023/04/05 07:27:15;;;;;;;;;;;;;;;;;;5111263;28;1967;-45
2023/04/05 07:29:43;;;;;;;;;;;;;;;;;;5111907;28;2248;-40
2023/04/05 07:32:12;;;;;;;;;;;;;;;;;;5111267;28;2153;-48
2023/04/05 07:34:40;;;;;;;;;;;;;;;;;;5111280;28;1828;-41
2023/04/05 07:37:07;;;;;;;;;;;;;;;;;;5115148;28;1865;-46
2023/04/05 07:39:34;;;;;;;;;;;;;;;;;;5115522;28;2211;-40
2023/04/05 07:42:01;;;;;;;;;;;;;;;;;;5115501;28;1245;-46
2023/04/05 07:44:28;;;;;;;;;;;;;;;;;;5115308;28;2075;-41
2023/04/05 07:46:56;;;;;;;;;;;;;;;;;;5127416;27;2152;-41
2023/04/05 07:49:24;;;;;;;;;;;;;;;;;;5135800;27;2129;-50
2023/04/05 07:51:53;;;;;;;;;;;;;;;;;;5135837;27;1812;-41
2023/04/05 07:54:20;;;;;;;;;;;;;;;;;;5135744;27;2383;-41
2023/04/05 07:56:50;;;;;;;;;;;;;;;;;;5135615;27;2256;-41
2023/04/05 07:59:19;;;;;;;;;;;;;;;;;;5135561;27;1491;-49
2023/04/05 08:01:46;;;;;;;;;;;;;;;;;;5135567;27;1869;-53
2023/04/05 08:04:14;;;;;;;;;;;;;;;;;;5117086;27;2348;-52
2023/04/05 08:06:41;;;;;;;;;;;;;;;;;;5135519;27;2034;-41
2023/04/05 08:09:09;;;;;;;;;;;;;;;;;;5135405;27;1909;-41
2023/04/05 08:11:36;;;;;;;;;;;;;;;;;;5135307;27;1472;-41
2023/04/05 08:14:04;;;;;;;;;;;;;;;;;;5135050;27;1847;-49
2023/04/05 08:16:32;;;;;;;;;;;;;;;;;;5135366;27;2176;-42
2023/04/05 08:18:59;;;;;;;;;;;;;;;;;;5135491;27;1949;-42
2023/04/05 08:21:27;;;;;;;;;;;;;;;;;;5135448;27;1847;-40
2023/04/05 08:23:54;;;;;;;;;;;;;;;;;;5135130;27;1738;-55
2023/04/05 08:26:21;;;;;;;;;;;;;;;;;;5135195;27;1845;-40
2023/04/05 08:28:48;;;;;;;;;;;;;;;;;;5135082;27;1983;-40
2023/04/05 08:31:15;;;;;;;;;;;;;;;;;;5134911;27;2007;-41
2023/04/05 08:33:43;;;;;;;;;;;;;;;;;;5135303;27;1835;-41
2023/04/05 08:36:10;;;;;;;;;;;;;;;;;;5134979;27;1663;-40
2023/04/05 08:38:37;;;;;;;;;;;;;;;;;;5134909;27;1826;-40
2023/04/05 08:41:13;;;;;;;;;;;;;;;;;;5134759;27;1634;-40
2023/04/05 08:43:52;;;;;;;;;;;;;;;;;;5134733;27;2040;-40
2023/04/05 08:46:19;;;;;;;;;;;;;;;;;;5133987;27;1405;-40
2023/04/05 08:48:47;;;;;;;;;;;;;;;;;;5133951;27;1977;-58
2023/04/05 08:51:20;;;;;;;;;;;;;;;;;;5134697;27;1946;-52
2023/04/05 08:53:48;;;;;;;;;;;;;;;;;;5134601;27;1595;-47
2023/04/05 08:56:18;;;;;;;;;;;;;;;;;;5134633;27;1883;-50
2023/04/05 08:58:48;;;;;;;;;;;;;;;;;;5115937;27;2342;-44
2023/04/05 09:01:16;;;;;;;;;;;;;;;;;;5134552;27;1776;-41
2023/04/05 09:03:44;;;;;;;;;;;;;;;;;;5134447;27;1676;-45
2023/04/05 09:06:12;;;;;;;;;;;;;;;;;;5134354;27;1939;-48
2023/04/05 09:08:40;;;;;;;;;;;;;;;;;;5134217;27;1988;-40
2023/04/05 09:11:07;;;;;;;;;;;;;;;;;;5134106;27;2060;-50
2023/04/05 09:13:34;;;;;;;;;;;;;;;;;;5134430;27;1861;-41
2023/04/05 09:16:02;;;;;;;;;;;;;;;;;;5134271;27;1660;-40
2023/04/05 09:18:30;;;;;;;;;;;;;;;;;;5134015;27;1904;-41
2023/04/05 09:21:02;;;;;;;;;;;;;;;;;;5134068;27;2158;-39
2023/04/05 09:23:31;;;;;;;;;;;;;;;;;;5134273;27;1627;-41
2023/04/05 09:25:58;;;;;;;;;;;;;;;;;;5134064;27;2033;-41
2023/04/05 09:28:43;;;;;;;;;;;;;;;;;;5134009;27;2092;-40
2023/04/05 09:31:28;;;;;;;;;;;;;;;;;;5133858;27;1992;-40
2023/04/05 09:34:02;;;;;;;;;;;;;;;;;;5133887;27;1954;-40
2023/04/05 09:36:31;;;;;;;;;;;;;;;;;;5133952;27;1397;-41
2023/04/05 09:39:05;;;;;;;;;;;;;;;;;;5133675;27;1885;-47
2023/04/05 09:41:33;;;;;;;;;;;;;;;;;;5134281;27;2289;-54
2023/04/05 09:44:01;;;;;;;;;;;;;;;;;;5133501;27;1432;-42
2023/04/05 09:46:33;;;;;;;;;;;;;;;;;;5133405;27;1446;-42
2023/04/05 09:49:02;;;;;;;;;;;;;;;;;;5133444;27;1975;-48
2023/04/05 09:51:33;;;;;;;;;;;;;;;;;;5133442;27;1682;-54
2023/04/05 09:54:03;;;;;;;;;;;;;;;;;;5133501;27;1556;-54
2023/04/05 09:56:35;;;;;;;;;;;;;;;;;;5133176;27;1856;-56
2023/04/05 09:59:10;;;;;;;;;;;;;;;;;;5133087;27;1895;-53
2023/04/05 10:01:38;;;;;;;;;;;;;;;;;;5133437;27;1915;-54
2023/04/05 10:04:10;;;;;;;;;;;;;;;;;;5132951;27;1805;-41
2023/04/05 10:06:38;;;;;;;;;;;;;;;;;;5133471;27;1809;-39
2023/04/05 10:09:06;;;;;;;;;;;;;;;;;;5115032;27;2027;-39
2023/04/05 10:11:35;;;;;;;;;;;;;;;;;;5133362;27;2183;-47
2023/04/05 10:14:03;;;;;;;;;;;;;;;;;;5132918;27;2175;-41
2023/04/05 10:16:57;;;;;;;;;;;;;;;;;;5133013;27;1685;-41
2023/04/05 10:19:32;;;;;;;;;;;;;;;;;;5111217;28;1783;-40
2023/04/05 10:22:01;;;;;;;;;;;;;;;;;;5112420;28;1671;-41
2023/04/05 10:24:44;;;;;;;;;;;;;;;;;;5112199;28;1859;-53
2023/04/05 10:27:27;;;;;;;;;;;;;;;;;;5111933;28;1820;-40
2023/04/05 10:30:05;;;;;;;;;;;;;;;;;;5112078;28;1987;-51
2023/04/05 10:32:38;;;;;;;;;;;;;;;;;;5112149;28;1829;-41
2023/04/05 10:35:05;;;;;;;;;;;;;;;;;;5112280;28;1911;-49
2023/04/05 10:37:53;;;;;;;;;;;;;;;;;;5111903;28;1536;-40
2023/04/05 10:40:23;;;;;;;;;;;;;;;;;;5087048;28;1692;-41
2023/04/05 10:42:50;;;;;;;;;;;;;;;;;;5112040;28;1369;-40
2023/04/05 10:45:21;;;;;;;;;;;;;;;;;;5111912;28;1542;-40
2023/04/05 10:48:01;;;;;;;;;;;;;;;;;;5111620;28;2022;-40
2023/04/05 10:50:28;;;;;;;;;;;;;;;;;;5111857;28;1834;-40
2023/04/05 10:52:56;;;;;;;;;;;;;;;;;;5111821;28;1970;-40
2023/04/05 10:55:26;;;;;;;;;;;;;;;;;;5113320;28;1736;-39
2023/04/05 10:57:54;;;;;;;;;;;;;;;;;;5132291;27;1803;-39
2023/04/05 11:00:22;;;;;;;;;;;;;;;;;;5132177;27;1711;-39
2023/04/05 11:02:53;;;;;;;;;;;;;;;;;;5132230;27;1949;-39
2023/04/05 11:05:31;;;;;;;;;;;;;;;;;;5132151;27;1945;-40
2023/04/05 11:08:01;;;;;;;;;;;;;;;;;;5132281;27;2079;-40
2023/04/05 11:10:29;;;;;;;;;;;;;;;;;;5131462;27;1982;-40
2023/04/05 11:12:56;;;;;;;;;;;;;;;;;;5132136;27;1941;-40
2023/04/05 11:15:30;;;;;;;;;;;;;;;;;;5132226;27;2406;-40
2023/04/05 11:18:02;;;;;;;;;;;;;;;;;;5132011;28;1438;-47
2023/04/05 11:20:45;;;;;;;;;;;;;;;;;;5131946;28;2049;-55
2023/04/05 11:23:16;;;;;;;;;;;;;;;;;;5132750;28;2053;-50
2023/04/05 11:25:47;;;;;;;;;;;;;;;;;;5132063;28;2154;-41
2023/04/05 11:28:23;;;;;;;;;;;;;;;;;;5131993;28;1971;-53
2023/04/05 11:30:51;;;;;;;;;;;;;;;;;;5132053;28;1470;-51
2023/04/05 11:33:37;;;;;;;;;;;;;;;;;;5131942;28;1814;-57
2023/04/05 11:36:05;;;;;;;;;;;;;;;;;;5131895;28;2286;-40
2023/04/05 11:38:32;;;;;;;;;;;;;;;;;;5131957;28;2075;-49
2023/04/05 11:41:10;;;;;;;;;;;;;;;;;;5131855;28;2096;-40
2023/04/05 11:43:37;;;;;;;;;;;;;;;;;;5131905;28;2306;-40
2023/04/05 11:46:04;;;;;;;;;;;;;;;;;;5131740;28;1686;-39
2023/04/05 11:48:33;;;;;;;;;;;;;;;;;;5131566;28;2241;-47
2023/04/05 11:51:06;;;;;;;;;;;;;;;;;;5131834;28;1773;-39
2023/04/05 11:53:33;;;;;;;;;;;;;;;;;;5131810;28;2165;-38
2023/04/05 11:56:06;;;;;;;;;;;;;;;;;;5131707;28;2163;-38
2023/04/05 11:58:34;;;;;;;;;;;;;;;;;;5131546;28;2144;-39
2023/04/05 12:01:08;;;;;;;;;;;;;;;;;;5131699;28;1828;-38
2023/04/05 12:03:35;;;;;;;;;;;;;;;;;;5131636;28;1431;-39
2023/04/05 12:06:04;;;;;;;;;;;;;;;;;;5131602;28;1774;-39
2023/04/05 12:08:39;;;;;;;;;;;;;;;;;;5131607;28;2013;-38
2023/04/05 12:11:07;;;;;;;;;;;;;;;;;;5131609;28;1824;-38
2023/04/05 12:13:35;;;;;;;;;;;;;;;;;;5131463;28;1807;-39
2023/04/05 12:16:04;;;;;;;;;;;;;;;;;;5131812;28;1894;-40
2023/04/05 12:18:35;;;;;;;;;;;;;;;;;;5131281;27;1817;-38
2023/04/05 12:21:03;;;;;;;;;;;;;;;;;;5131653;27;1953;-40
2023/04/05 12:23:33;;;;;;;;;;;;;;;;;;5135284;27;1845;-40
2023/04/05 12:26:00;;;;;;;;;;;;;;;;;;5135034;27;1526;-40
2023/04/05 12:28:46;;;;;;;;;;;;;;;;;;5134721;27;2274;-41
2023/04/05 12:31:14;;;;;;;;;;;;;;;;;;5133141;27;1817;-37
2023/04/05 12:33:42;;;;;;;;;;;;;;;;;;5112471;28;2368;-38
2023/04/05 12:36:12;;;;;;;;;;;;;;;;;;5114490;28;1480;-40
2023/04/05 12:38:40;;;;;;;;;;;;;;;;;;5114478;28;1270;-41
2023/04/05 12:41:07;;;;;;;;;;;;;;;;;;5114376;28;2125;-41
2023/04/05 12:43:41;;;;;;;;;;;;;;;;;;5114388;28;2109;-41
2023/04/05 12:46:09;;;;;;;;;;;;;;;;;;5114117;28;1718;-48
2023/04/05 12:48:37;;;;;;;;;;;;;;;;;;5114157;28;2085;-37
2023/04/05 12:51:12;;;;;;;;;;;;;;;;;;5114104;28;2101;-45
2023/04/05 12:53:44;;;;;;;;;;;;;;;;;;5114110;28;1786;-40
2023/04/05 12:56:11;;;;;;;;;;;;;;;;;;5122312;27;2016;-40
2023/04/05 12:58:39;;;;;;;;;;;;;;;;;;5134654;27;1829;-41
2023/04/05 13:01:06;;;;;;;;;;;;;;;;;;5134616;27;1884;-41
2023/04/05 13:03:33;;;;;;;;;;;;;;;;;;5134590;27;1638;-42
2023/04/05 13:06:00;;;;;;;;;;;;;;;;;;5134465;27;2302;-48
2023/04/05 13:08:27;;;;;;;;;;;;;;;;;;5114093;27;1891;-41
2023/04/05 13:10:54;;;;;;;;;;;;;;;;;;5134192;27;1970;-41
2023/04/05 13:13:24;;;;;;;;;;;;;;;;;;5134453;27;2255;-41
2023/04/05 13:15:51;;;;;;;;;;;;;;;;;;5134023;27;2109;-44
2023/04/05 13:18:19;;;;;;;;;;;;;;;;;;5134571;27;2281;-43
2023/04/05 13:20:46;;;;;;;;;;;;;;;;;;5115667;27;2652;-45
2023/04/05 13:23:13;;;;;;;;;;;;;;;;;;5133906;27;1860;-45
2023/04/05 13:25:41;;;;;;;;;;;;;;;;;;5134112;27;1740;-41
2023/04/05 13:28:09;;;;;;;;;;;;;;;;;;5133910;27;1967;-43
2023/04/05 13:30:36;;;;;;;;;;;;;;;;;;5133582;27;1974;-47
2023/04/05 13:33:04;;;;;;;;;;;;;;;;;;5133102;27;1889;-42
2023/04/05 13:35:31;;;;;;;;;;;;;;;;;;5133812;27;1773;-45
2023/04/05 13:38:00;;;;;;;;;;;;;;;;;;5131791;27;1988;-40
2023/04/05 13:40:31;;;;;;;;;;;;;;;;;;5133646;27;2390;-42
2023/04/05 13:42:58;;;;;;;;;;;;;;;;;;5133543;27;1916;-46
2023/04/05 13:45:26;;;;;;;;;;;;;;;;;;5133528;27;1887;-45
2023/04/05 13:47:53;;;;;;;;;;;;;;;;;;5133554;27;1831;-41
2023/04/05 13:50:21;;;;;;;;;;;;;;;;;;5133628;27;1993;-51
2023/04/05 13:52:48;;;;;;;;;;;;;;;;;;5133448;27;1860;-39
2023/04/05 13:55:15;;;;;;;;;;;;;;;;;;5133767;27;1774;-38
2023/04/05 13:57:43;;;;;;;;;;;;;;;;;;5133206;27;1664;-39
2023/04/05 14:00:10;;;;;;;;;;;;;;;;;;5132668;27;2148;-40
2023/04/05 14:02:38;;;;;;;;;;;;;;;;;;5131966;27;2245;-40
2023/04/05 14:05:06;;;;;;;;;;;;;;;;;;5133118;27;1916;-40
2023/04/05 14:07:33;;;;;;;;;;;;;;;;;;5133264;27;2000;-41
2023/04/05 14:10:00;;;;;;;;;;;;;;;;;;5132616;27;2033;-40
2023/04/05 14:12:29;;;;;;;;;;;;;;;;;;5132751;27;2002;-41
2023/04/05 14:14:56;;;;;;;;;;;;;;;;;;5132288;27;1704;-44
2023/04/05 14:17:23;;;;;;;;;;;;;;;;;;5133068;27;1568;-39
2023/04/05 14:19:50;;;;;;;;;;;;;;;;;;5133098;27;1447;-42
2023/04/05 14:22:20;;;;;;;;;;;;;;;;;;5132486;27;2255;-41
2023/04/05 14:24:47;;;;;;;;;;;;;;;;;;5132685;27;1940;-54
2023/04/05 14:27:15;;;;;;;;;;;;;;;;;;5132818;27;2110;-48
2023/04/05 14:29:44;;;;;;;;;;;;;;;;;;5132809;27;1917;-52
2023/04/05 14:32:11;;;;;;;;;;;;;;;;;;5132728;27;1851;-43
2023/04/05 14:34:39;;;;;;;;;;;;;;;;;;5132514;27;2031;-57
2023/04/05 14:37:06;;;;;;;;;;;;;;;;;;5132460;27;1682;-43
2023/04/05 14:39:33;;;;;;;;;;;;;;;;;;5113918;27;2221;-41
2023/04/05 14:42:01;;;;;;;;;;;;;;;;;;5128188;27;10157;-57
2023/04/05 14:44:28;;;;;;;;;;;;;;;;;;5131859;27;2077;-52
2023/04/05 14:46:55;;;;;;;;;;;;;;;;;;5132145;27;1785;-47
2023/04/05 14:49:23;;;;;;;;;;;;;;;;;;5132465;27;1978;-44
2023/04/05 14:51:50;;;;;;;;;;;;;;;;;;5132359;27;1704;-40
2023/04/05 14:54:17;;;;;;;;;;;;;;;;;;5132432;27;2090;-41
2023/04/05 14:56:44;;;;;;;;;;;;;;;;;;5145230;27;1883;-41
2023/04/05 14:59:11;;;;;;;;;;;;;;;;;;5153021;27;1994;-48
2023/04/05 15:01:41;;;;;;;;;;;;;;;;;;5152948;27;2027;-47
2023/04/05 15:04:08;;;;;;;;;;;;;;;;;;5152612;27;1729;-41
2023/04/05 15:06:36;;;;;;;;;;;;;;;;;;5152745;27;1826;-40
2023/04/05 15:09:03;;;;;;;;;;;;;;;;;;5152750;27;1905;-41
2023/04/05 15:11:34;;;;;;;;;;;;;;;;;;5152849;27;1903;-47
2023/04/05 15:14:01;;;;;;;;;;;;;;;;;;5152233;27;1269;-42
2023/04/05 15:16:30;;;;;;;;;;;;;;;;;;5152758;27;1785;-46
2023/04/05 15:18:58;;;;;;;;;;;;;;;;;;5152602;27;1434;-40
2023/04/05 15:21:26;;;;;;;;;;;;;;;;;;5153017;27;2092;-41
2023/04/05 15:23:53;;;;;;;;;;;;;;;;;;5138816;27;1810;-40
2023/04/05 15:26:20;;;;;;;;;;;;;;;;;;5131812;28;1843;-41
2023/04/05 15:28:48;;;;;;;;;;;;;;;;;;5130909;28;2070;-41
2023/04/05 15:31:15;;;;;;;;;;;;;;;;;;5131732;28;1913;-39
2023/04/05 15:33:42;;;;;;;;;;;;;;;;;;5132005;28;1809;-38
2023/04/05 15:36:09;;;;;;;;;;;;;;;;;;5131942;28;1701;-41
2023/04/05 15:38:37;;;;;;;;;;;;;;;;;;5131815;28;2305;-42
2023/04/05 15:41:04;;;;;;;;;;;;;;;;;;5131655;28;1818;-40
2023/04/05 15:43:32;;;;;;;;;;;;;;;;;;5131883;28;2222;-43
2023/04/05 15:45:59;;;;;;;;;;;;;;;;;;5113128;28;1990;-40
2023/04/05 15:48:27;;;;;;;;;;;;;;;;;;5132098;28;1823;-41
2023/04/05 15:50:54;;;;;;;;;;;;;;;;;;5131598;28;2142;-40
2023/04/05 15:53:21;;;;;;;;;;;;;;;;;;5131497;28;2209;-38
2023/04/05 15:55:49;;;;;;;;;;;;;;;;;;5114916;27;1876;-40
2023/04/05 15:58:16;;;;;;;;;;;;;;;;;;5135042;27;1564;-38
2023/04/05 16:00:44;;;;;;;;;;;;;;;;;;5135544;27;1532;-40
2023/04/05 16:03:11;;;;;;;;;;;;;;;;;;5134610;27;2164;-38
2023/04/05 16:05:38;;;;;;;;;;;;;;;;;;5134728;27;1880;-45
2023/04/05 16:08:05;;;;;;;;;;;;;;;;;;5135559;27;2117;-53
2023/04/05 16:10:33;;;;;;;;;;;;;;;;;;5135273;27;1981;-55
2023/04/05 16:13:00;;;;;;;;;;;;;;;;;;5135632;27;1854;-37
2023/04/05 16:15:27;;;;;;;;;;;;;;;;;;5135621;27;1694;-39
2023/04/05 16:17:55;;;;;;;;;;;;;;;;;;5135070;27;1445;-37
2023/04/05 16:20:22;;;;;;;;;;;;;;;;;;5135497;27;1418;-37
2023/04/05 16:22:50;;;;;;;;;;;;;;;;;;5135270;27;1583;-54
2023/04/05 16:25:17;;;;;;;;;;;;;;;;;;5135918;27;1824;-40
2023/04/05 16:27:44;;;;;;;;;;;;;;;;;;5134921;27;1587;-41
2023/04/05 16:30:12;;;;;;;;;;;;;;;;;;5134787;27;1991;-41
2023/04/05 16:32:39;;;;;;;;;;;;;;;;;;5135206;27;1957;-40
2023/04/05 16:35:06;;;;;;;;;;;;;;;;;;5134663;27;1957;-39
2023/04/05 16:37:34;;;;;;;;;;;;;;;;;;5134817;27;1803;-40
2023/04/05 16:40:03;;;;;;;;;;;;;;;;;;5134815;27;2322;-40
2023/04/05 16:42:30;;;;;;;;;;;;;;;;;;5135137;27;2173;-47
2023/04/05 16:44:57;;;;;;;;;;;;;;;;;;5134929;27;2065;-39
2023/04/05 16:47:25;;;;;;;;;;;;;;;;;;5134563;27;2068;-41
2023/04/05 16:49:52;;;;;;;;;;;;;;;;;;5134855;27;1995;-39
2023/04/05 16:52:19;;;;;;;;;;;;;;;;;;5133655;27;1737;-42
2023/04/05 16:54:47;;;;;;;;;;;;;;;;;;5133939;27;2034;-39
2023/04/05 16:57:14;;;;;;;;;;;;;;;;;;5152049;27;2235;-39
2023/04/05 16:59:41;;;;;;;;;;;;;;;;;;5155394;27;1933;-51
2023/04/05 17:02:09;;;;;;;;;;;;;;;;;;5155218;27;1660;-39
2023/04/05 17:04:36;;;;;;;;;;;;;;;;;;5154119;27;2120;-40
2023/04/05 17:07:04;;;;;;;;;;;;;;;;;;5155198;27;1678;-46
2023/04/05 17:09:32;;;;;;;;;;;;;;;;;;5153929;27;2064;-41
2023/04/05 17:12:01;;;;;;;;;;;;;;;;;;5155136;27;1983;-40
2023/04/05 17:14:28;;;;;;;;;;;;;;;;;;5154979;27;1902;-40
2023/04/05 17:16:56;;;;;;;;;;;;;;;;;;5122555;27;2256;-40
2023/04/05 17:19:23;;;;;;;;;;;;;;;;;;5134140;27;1843;-39